Time;durP1;ratioP1;P1;durP2;ratioP2;P2;SDS_P1;SDS_P2;PMS_P1;PMS_P2;Temp;Humidity;BMP_temperature;BMP_pressure;BME280_temperature;BME280_humidity;BME280_pressure;Samples;Min_cycle;Max_cycle;Signal;HPM_P1;HPM_P2
2020/12/29 00:02:24;;;;;;;6.28;2.70;;;6.00;99.90;;;;;;5032835;28;20048;-80
2020/12/29 00:04:50;;;;;;;4.90;2.40;;;5.70;99.90;;;;;;5032772;28;20108;-78
2020/12/29 00:07:15;;;;;;;5.78;2.60;;;3.80;99.90;;;;;;5035462;28;20078;-80
2020/12/29 00:09:41;;;;;;;7.25;2.50;;;3.90;99.90;;;;;;5014907;28;20037;-81
2020/12/29 00:12:07;;;;;;;4.43;2.00;;;4.00;99.90;;;;;;4996475;28;20072;-79
2020/12/29 00:14:33;;;;;;;6.13;2.88;;;3.40;99.90;;;;;;5030646;28;20064;-80
2020/12/29 00:16:59;;;;;;;3.05;1.50;;;5.70;99.90;;;;;;5030214;28;20048;-81
2020/12/29 00:19:27;;;;;;;2.53;1.25;;;4.20;99.90;;;;;;5030563;28;20045;-78
2020/12/29 00:21:53;;;;;;;2.22;1.08;;;4.20;99.90;;;;;;5034563;28;20176;-81
2020/12/29 00:24:19;;;;;;;5.40;1.40;;;4.40;99.90;;;;;;5027889;28;20034;-80
2020/12/29 00:26:45;;;;;;;2.83;1.10;;;4.30;99.90;;;;;;5029110;28;20070;-78
2020/12/29 00:29:11;;;;;;;2.63;1.00;;;4.40;99.90;;;;;;5029727;28;20038;-81
2020/12/29 00:31:36;;;;;;;3.22;1.40;;;4.40;99.90;;;;;;5014167;28;20396;-79
2020/12/29 00:34:03;;;;;;;2.10;1.08;;;4.30;99.90;;;;;;5042146;28;20048;-81
2020/12/29 00:36:31;;;;;;;1.92;1.00;;;4.30;99.90;;;;;;5032576;28;20029;-79
2020/12/29 00:38:56;;;;;;;1.92;1.10;;;4.30;99.90;;;;;;5028027;28;20533;-80
2020/12/29 00:41:23;;;;;;;3.10;0.95;;;4.30;99.90;;;;;;5027188;28;20033;-80
2020/12/29 00:43:49;;;;;;;3.50;1.17;;;4.40;99.90;;;;;;5031535;28;20060;-81
2020/12/29 00:46:18;;;;;;;2.63;1.13;;;4.40;99.90;;;;;;5033112;28;20487;-80
2020/12/29 00:48:44;;;;;;;2.97;0.90;;;4.40;99.90;;;;;;5030853;28;20075;-78
2020/12/29 00:51:21;;;;;;;1.92;0.80;;;4.40;99.90;;;;;;5032608;28;20491;-82
2020/12/29 00:53:47;;;;;;;1.48;0.73;;;4.40;99.90;;;;;;5030897;28;20091;-78
2020/12/29 00:56:14;;;;;;;2.05;0.60;;;4.40;99.90;;;;;;5028971;28;20088;-80
2020/12/29 00:58:40;;;;;;;3.75;1.20;;;4.40;99.90;;;;;;5033502;28;20061;-79
2020/12/29 01:01:07;;;;;;;1.17;0.80;;;4.50;99.90;;;;;;5026135;28;20458;-82
2020/12/29 01:03:33;;;;;;;2.55;0.65;;;4.60;99.90;;;;;;5009759;28;20340;-81
2020/12/29 01:06:02;;;;;;;1.45;0.65;;;4.80;99.90;;;;;;5030043;28;20041;-78
2020/12/29 01:08:28;;;;;;;2.10;0.70;;;4.90;99.90;;;;;;5033848;28;20035;-82
2020/12/29 01:10:55;;;;;;;1.52;0.70;;;4.60;99.90;;;;;;5028179;28;20093;-76
2020/12/29 01:13:21;;;;;;;0.90;0.70;;;5.60;99.90;;;;;;5027081;28;20048;-82
2020/12/29 01:15:50;;;;;;;1.02;0.60;;;4.70;99.90;;;;;;5039853;28;20449;-81
2020/12/29 01:18:15;;;;;;;3.30;0.93;;;4.60;99.90;;;;;;5033156;28;20085;-79
2020/12/29 01:20:42;;;;;;;0.88;0.68;;;4.60;99.90;;;;;;5032521;28;20581;-82
2020/12/29 01:23:08;;;;;;;1.30;0.60;;;4.60;99.90;;;;;;5033841;28;20078;-79
2020/12/29 01:25:33;;;;;;;0.82;0.60;;;4.60;99.90;;;;;;5042295;28;20082;-78
2020/12/29 01:28:01;;;;;;;0.75;0.50;;;4.50;99.90;;;;;;5029526;28;20048;-79
2020/12/29 01:30:27;;;;;;;2.20;0.77;;;4.60;99.90;;;;;;5034694;28;20066;-81
2020/12/29 01:32:53;;;;;;;1.67;0.68;;;4.50;99.90;;;;;;5030008;28;20472;-81
2020/12/29 01:35:18;;;;;;;1.95;0.70;;;6.10;99.90;;;;;;5030965;28;20025;-81
2020/12/29 01:37:45;;;;;;;1.17;0.68;;;4.50;99.90;;;;;;5032253;28;20040;-82
2020/12/29 01:40:12;;;;;;;1.00;0.70;;;5.90;99.90;;;;;;5032555;28;20101;-80
2020/12/29 01:42:38;;;;;;;1.17;0.43;;;5.60;99.90;;;;;;5030573;28;20036;-81
2020/12/29 01:45:12;;;;;;;1.90;0.65;;;6.20;99.90;;;;;;5015987;28;22179;-81
2020/12/29 01:47:39;;;;;;;1.83;0.70;;;5.50;99.90;;;;;;5027758;28;20041;-84
2020/12/29 01:50:10;;;;;;;0.70;0.60;;;4.60;99.90;;;;;;5038240;28;20096;-81
2020/12/29 01:52:37;;;;;;;2.03;0.70;;;4.60;99.90;;;;;;5030661;28;20053;-81
2020/12/29 01:55:04;;;;;;;1.50;0.90;;;4.50;99.90;;;;;;5034280;28;20037;-79
2020/12/29 01:57:31;;;;;;;2.95;0.80;;;4.40;99.90;;;;;;5034869;28;20033;-81
2020/12/29 01:59:56;;;;;;;0.85;0.60;;;4.40;99.90;;;;;;5031516;28;20456;-80
2020/12/29 02:02:23;;;;;;;0.95;0.55;;;4.40;99.90;;;;;;5030229;28;20049;-81
2020/12/29 02:04:49;;;;;;;2.42;1.27;;;4.40;99.90;;;;;;5028334;28;20029;-78
2020/12/29 02:07:16;;;;;;;1.80;0.65;;;4.40;99.90;;;;;;5042273;28;20053;-78
2020/12/29 02:09:42;;;;;;;0.68;0.57;;;4.40;99.90;;;;;;5033873;28;20521;-81
2020/12/29 02:12:34;;;;;;;0.60;0.55;;;4.40;99.90;;;;;;5031717;28;20034;-80
2020/12/29 02:15:01;;;;;;;0.98;0.50;;;4.30;99.90;;;;;;5028097;28;20037;-80
2020/12/29 02:17:27;;;;;;;1.27;0.65;;;4.20;99.90;;;;;;5030656;28;20037;-81
2020/12/29 02:19:58;;;;;;;1.23;0.70;;;4.20;99.90;;;;;;5029087;28;20048;-82
2020/12/29 02:22:25;;;;;;;1.17;0.70;;;4.30;99.90;;;;;;5036571;28;20026;-80
2020/12/29 02:25:05;;;;;;;0.80;0.60;;;4.10;99.90;;;;;;5031528;28;20030;-76
2020/12/29 02:27:33;;;;;;;0.88;0.55;;;4.00;99.90;;;;;;5043074;28;20065;-80
2020/12/29 02:29:59;;;;;;;0.57;0.57;;;3.90;99.90;;;;;;5033485;28;20036;-79
2020/12/29 02:32:26;;;;;;;1.40;0.60;;;3.80;99.90;;;;;;5028177;28;20030;-79
2020/12/29 02:34:52;;;;;;;0.75;0.60;;;3.80;99.90;;;;;;5032430;28;20108;-81
2020/12/29 02:37:19;;;;;;;1.20;0.60;;;3.80;99.90;;;;;;5031626;28;20041;-79
2020/12/29 02:39:49;;;;;;;0.85;0.60;;;3.70;99.90;;;;;;5026678;28;20043;-80
2020/12/29 02:42:15;;;;;;;0.70;0.55;;;3.70;99.90;;;;;;5029402;28;20029;-79
2020/12/29 02:44:44;;;;;;;1.17;0.68;;;3.50;99.90;;;;;;5031445;28;20037;-81
2020/12/29 02:47:10;;;;;;;1.45;0.90;;;3.50;99.90;;;;;;5032387;28;20040;-81
2020/12/29 02:49:36;;;;;;;1.23;0.70;;;3.50;99.90;;;;;;5029824;28;20033;-81
2020/12/29 02:52:05;;;;;;;0.73;0.70;;;3.50;99.90;;;;;;5032247;28;20041;-78
2020/12/29 02:54:31;;;;;;;1.02;0.80;;;3.40;99.90;;;;;;5032157;28;20049;-80
2020/12/29 02:56:57;;;;;;;1.27;0.90;;;3.30;99.90;;;;;;5028480;28;20088;-78
2020/12/29 02:59:24;;;;;;;1.00;0.77;;;3.30;99.90;;;;;;5030822;28;20033;-79
2020/12/29 03:01:52;;;;;;;1.48;0.90;;;3.30;99.90;;;;;;5015666;28;20068;-80
2020/12/29 03:04:19;;;;;;;0.63;0.63;;;3.30;99.90;;;;;;5029321;28;20030;-79
2020/12/29 03:06:45;;;;;;;1.67;0.93;;;3.30;99.90;;;;;;5031750;28;20045;-82
2020/12/29 03:09:13;;;;;;;1.40;1.00;;;3.40;99.90;;;;;;5035997;28;20037;-78
2020/12/29 03:11:40;;;;;;;1.13;0.80;;;3.40;99.90;;;;;;5032607;28;20586;-79
2020/12/29 03:14:09;;;;;;;1.20;0.90;;;3.40;99.90;;;;;;5029867;28;20118;-79
2020/12/29 03:16:35;;;;;;;1.20;1.00;;;3.30;99.90;;;;;;5041349;28;20029;-82
2020/12/29 03:19:03;;;;;;;1.45;0.82;;;3.40;99.90;;;;;;5037189;28;20056;-79
2020/12/29 03:21:30;;;;;;;3.03;1.30;;;3.40;99.90;;;;;;5036788;28;20041;-80
2020/12/29 03:23:56;;;;;;;1.60;1.00;;;3.40;99.90;;;;;;5040838;28;20041;-79
2020/12/29 03:26:22;;;;;;;2.95;1.50;;;3.40;99.90;;;;;;5030778;28;20407;-79
2020/12/29 03:28:50;;;;;;;1.27;0.90;;;3.40;99.90;;;;;;5038486;28;20038;-80
2020/12/29 03:31:16;;;;;;;4.70;2.15;;;3.50;99.90;;;;;;5021882;28;20427;-79
2020/12/29 03:33:42;;;;;;;1.10;0.90;;;3.50;99.90;;;;;;5032451;28;20052;-81
2020/12/29 03:36:08;;;;;;;1.77;1.25;;;3.30;99.90;;;;;;5031743;28;20037;-82
2020/12/29 03:38:34;;;;;;;2.25;0.90;;;3.50;99.90;;;;;;5033499;28;20141;-77
2020/12/29 03:41:00;;;;;;;1.05;0.90;;;3.50;99.90;;;;;;5033109;28;20077;-78
2020/12/29 03:43:26;;;;;;;0.80;0.80;;;5.00;99.90;;;;;;5016994;28;20041;-78
2020/12/29 03:45:52;;;;;;;1.77;0.98;;;3.50;99.90;;;;;;5033567;28;20045;-81
2020/12/29 03:48:22;;;;;;;1.63;0.95;;;3.50;99.90;;;;;;5034415;28;20165;-83
2020/12/29 03:50:50;;;;;;;0.80;0.77;;;5.50;99.90;;;;;;5036521;28;20440;-81
2020/12/29 03:53:16;;;;;;;0.70;0.70;;;3.90;99.90;;;;;;5031119;28;20365;-79
2020/12/29 03:55:41;;;;;;;0.80;0.80;;;3.40;99.90;;;;;;5015561;28;20034;-79
2020/12/29 03:58:07;;;;;;;0.80;0.80;;;3.40;99.90;;;;;;5032593;28;20045;-79
2020/12/29 04:00:34;;;;;;;1.67;1.40;;;3.70;99.90;;;;;;5028750;28;20026;-79
2020/12/29 04:03:01;;;;;;;1.10;0.90;;;3.70;99.90;;;;;;5033971;28;20034;-79
2020/12/29 04:05:27;;;;;;;1.48;1.02;;;3.70;99.90;;;;;;5024709;28;20119;-79
2020/12/29 04:07:53;;;;;;;1.23;1.00;;;3.60;99.90;;;;;;5036581;28;20029;-79
2020/12/29 04:10:19;;;;;;;1.20;1.00;;;3.60;99.90;;;;;;5033715;28;20044;-81
2020/12/29 04:12:45;;;;;;;1.75;1.25;;;3.60;99.90;;;;;;5037321;28;20025;-79
2020/12/29 04:15:12;;;;;;;1.42;1.15;;;3.60;99.90;;;;;;5033090;28;20045;-81
2020/12/29 04:17:39;;;;;;;1.85;1.40;;;3.50;99.90;;;;;;5037461;28;20033;-81
2020/12/29 04:20:08;;;;;;;1.25;1.10;;;3.50;99.90;;;;;;5035963;28;20133;-79
2020/12/29 04:22:34;;;;;;;1.50;1.30;;;3.50;99.90;;;;;;5035353;28;20038;-78
2020/12/29 04:25:01;;;;;;;1.63;1.27;;;4.60;99.90;;;;;;5030516;28;20107;-80
2020/12/29 04:27:29;;;;;;;1.40;1.30;;;3.50;99.90;;;;;;5031438;28;20067;-79
2020/12/29 04:29:54;;;;;;;1.40;1.30;;;3.50;99.90;;;;;;5036396;28;20037;-81
2020/12/29 04:32:20;;;;;;;2.05;1.45;;;3.50;99.90;;;;;;5017542;28;20045;-80
2020/12/29 04:34:48;;;;;;;1.30;1.20;;;3.40;99.90;;;;;;5032346;28;20033;-79
2020/12/29 04:37:15;;;;;;;1.40;1.20;;;3.40;99.90;;;;;;5033484;28;20021;-79
2020/12/29 04:39:41;;;;;;;4.55;1.50;;;3.40;99.90;;;;;;5037551;28;20025;-82
2020/12/29 04:42:12;;;;;;;2.75;1.52;;;3.40;99.90;;;;;;5034316;28;20534;-79
2020/12/29 04:44:42;;;;;;;2.30;1.80;;;3.30;99.90;;;;;;5035286;28;20111;-78
2020/12/29 04:47:10;;;;;;;2.17;1.40;;;3.40;99.90;;;;;;5033243;28;20064;-79
2020/12/29 04:49:43;;;;;;;1.80;1.52;;;3.40;99.90;;;;;;5032372;28;20038;-79
2020/12/29 04:52:12;;;;;;;2.65;1.73;;;3.30;99.90;;;;;;5030307;28;20457;-79
2020/12/29 04:54:39;;;;;;;2.13;1.55;;;3.40;99.90;;;;;;5030648;28;20495;-78
2020/12/29 04:57:09;;;;;;;1.60;1.40;;;3.50;99.90;;;;;;5033704;28;20068;-81
2020/12/29 04:59:36;;;;;;;1.83;1.50;;;3.40;99.90;;;;;;5032922;28;20025;-81
2020/12/29 05:02:03;;;;;;;1.42;1.33;;;3.50;99.90;;;;;;5039318;28;20395;-81
2020/12/29 05:04:30;;;;;;;3.28;1.70;;;3.50;99.90;;;;;;5030155;28;20080;-79
2020/12/29 05:06:56;;;;;;;2.60;1.90;;;3.50;99.90;;;;;;5017009;28;20056;-80
2020/12/29 05:09:24;;;;;;;2.20;1.60;;;3.50;99.90;;;;;;5035052;28;20042;-80
2020/12/29 05:11:51;;;;;;;1.40;1.23;;;3.50;99.90;;;;;;5034707;28;20037;-81
2020/12/29 05:14:17;;;;;;;1.85;1.42;;;3.50;99.90;;;;;;5039114;28;20040;-81
2020/12/29 05:16:43;;;;;;;2.28;1.40;;;3.50;99.90;;;;;;5034508;28;20553;-81
2020/12/29 05:19:14;;;;;;;1.67;1.50;;;3.50;99.90;;;;;;5029005;28;20041;-81
2020/12/29 05:21:43;;;;;;;1.85;1.35;;;3.60;99.90;;;;;;5037659;28;20092;-81
2020/12/29 05:24:13;;;;;;;2.15;1.73;;;3.60;99.90;;;;;;5035169;28;20080;-80
2020/12/29 05:26:39;;;;;;;1.70;1.50;;;3.50;99.90;;;;;;5037370;28;20049;-81
2020/12/29 05:29:14;;;;;;;1.52;1.30;;;3.60;99.90;;;;;;5033525;28;20056;-81
2020/12/29 05:31:45;;;;;;;2.42;1.80;;;3.60;99.90;;;;;;5036236;28;20037;-80
2020/12/29 05:34:25;;;;;;;2.15;1.75;;;3.50;99.90;;;;;;5026232;28;20039;-80
2020/12/29 05:36:53;;;;;;;2.35;2.05;;;3.60;99.90;;;;;;5031950;28;20079;-79
2020/12/29 05:39:21;;;;;;;2.63;2.22;;;3.70;99.90;;;;;;5031128;28;20037;-81
2020/12/29 05:41:51;;;;;;;2.17;1.85;;;3.60;99.90;;;;;;5031102;28;20048;-81
2020/12/29 05:44:28;;;;;;;2.47;1.95;;;4.80;99.90;;;;;;5028915;28;20041;-79
2020/12/29 05:47:02;;;;;;;2.22;1.80;;;3.60;99.90;;;;;;5023600;28;20526;-80
2020/12/29 05:49:30;;;;;;;2.78;2.00;;;3.70;99.90;;;;;;5033336;28;20122;-81
2020/12/29 05:51:57;;;;;;;3.10;2.10;;;3.70;99.90;;;;;;5033187;28;20026;-80
2020/12/29 05:54:40;;;;;;;2.53;2.25;;;3.70;99.90;;;;;;5031796;28;20038;-83
2020/12/29 05:57:07;;;;;;;1.83;1.60;;;3.60;99.90;;;;;;5032568;28;20030;-81
2020/12/29 05:59:35;;;;;;;2.35;1.85;;;3.70;99.90;;;;;;5014339;28;20049;-81
2020/12/29 06:02:01;;;;;;;2.15;1.90;;;3.70;99.90;;;;;;5029754;28;20033;-81
2020/12/29 06:04:28;;;;;;;2.17;1.80;;;3.70;99.90;;;;;;5017513;28;20038;-80
2020/12/29 06:07:03;;;;;;;1.88;1.70;;;3.70;99.90;;;;;;5034889;28;20041;-78
2020/12/29 06:09:32;;;;;;;2.03;1.58;;;4.60;99.90;;;;;;5029738;28;20683;-81
2020/12/29 06:11:59;;;;;;;2.60;2.05;;;3.00;99.90;;;;;;5031500;28;20386;-79
2020/12/29 06:14:26;;;;;;;2.80;2.03;;;5.20;99.90;;;;;;5027267;28;20045;-80
2020/12/29 06:16:54;;;;;;;2.38;1.70;;;5.20;99.90;;;;;;5036252;28;20499;-81
2020/12/29 06:19:27;;;;;;;2.03;1.55;;;5.10;99.90;;;;;;5029289;28;20451;-80
2020/12/29 06:22:06;;;;;;;2.00;1.50;;;3.70;99.90;;;;;;5033247;28;20033;-83
2020/12/29 06:24:42;;;;;;;2.67;1.60;;;3.70;99.90;;;;;;5023314;28;20445;-81
2020/12/29 06:27:10;;;;;;;1.90;1.50;;;4.90;99.90;;;;;;5025253;28;20049;-78
2020/12/29 06:29:44;;;;;;;2.00;1.60;;;3.50;99.90;;;;;;5030583;28;20043;-80
2020/12/29 06:32:16;;;;;;;2.92;1.80;;;3.60;99.90;;;;;;5035334;28;20029;-79
2020/12/29 06:34:44;;;;;;;2.25;1.48;;;3.50;99.90;;;;;;5034178;28;20037;-79
2020/12/29 06:37:28;;;;;;;2.35;1.83;;;3.70;99.90;;;;;;5035133;28;20034;-82
2020/12/29 06:40:04;;;;;;;1.85;1.58;;;3.70;99.90;;;;;;5029523;28;20125;-79
2020/12/29 06:42:30;;;;;;;1.90;1.50;;;3.70;99.90;;;;;;5034140;28;20029;-80
2020/12/29 06:44:56;;;;;;;1.67;1.40;;;3.70;99.90;;;;;;5028762;28;20068;-83
2020/12/29 06:47:25;;;;;;;1.98;1.40;;;3.80;99.90;;;;;;5034153;28;20029;-79
2020/12/29 06:49:52;;;;;;;1.80;1.50;;;3.60;99.90;;;;;;5035200;28;20040;-79
2020/12/29 06:52:24;;;;;;;2.10;1.60;;;3.60;99.90;;;;;;5051323;28;20088;-80
2020/12/29 06:54:56;;;;;;;3.13;1.88;;;3.60;99.90;;;;;;5038082;28;20290;-79
2020/12/29 06:57:25;;;;;;;1.52;1.40;;;3.60;99.90;;;;;;5031151;28;20096;-81
2020/12/29 06:59:51;;;;;;;1.98;1.30;;;3.60;99.90;;;;;;5036001;28;20032;-78
2020/12/29 07:02:22;;;;;;;2.22;1.55;;;3.70;99.90;;;;;;5036407;28;20029;-81
2020/12/29 07:04:53;;;;;;;1.83;1.30;;;3.50;99.90;;;;;;5023499;28;20080;-83
2020/12/29 07:07:33;;;;;;;2.00;1.30;;;3.50;99.90;;;;;;5026822;28;20037;-80
2020/12/29 07:10:00;;;;;;;1.55;1.40;;;3.60;99.90;;;;;;5025624;28;20072;-80
2020/12/29 07:12:30;;;;;;;1.65;1.30;;;3.60;99.90;;;;;;5033785;28;20483;-78
2020/12/29 07:14:59;;;;;;;1.73;1.38;;;3.50;99.90;;;;;;5035083;28;20025;-78
2020/12/29 07:20:52;;;;;;;1.58;1.20;;;3.40;99.90;;;;;;5029580;28;20406;-81
2020/12/29 07:23:20;;;;;;;1.77;1.30;;;3.50;99.90;;;;;;5026858;28;20052;-80
2020/12/29 07:25:50;;;;;;;2.20;1.50;;;3.50;99.90;;;;;;5034071;28;20029;-81
2020/12/29 07:28:19;;;;;;;2.08;1.33;;;3.50;99.90;;;;;;5032693;28;20033;-81
2020/12/29 07:30:45;;;;;;;1.90;1.40;;;3.50;99.90;;;;;;5033941;28;20041;-82
2020/12/29 07:33:10;;;;;;;1.40;1.30;;;3.50;99.90;;;;;;5040254;28;20021;-82
2020/12/29 07:35:39;;;;;;;1.90;1.40;;;3.60;99.90;;;;;;5011914;28;20033;-79
2020/12/29 07:38:23;;;;;;;1.75;1.42;;;3.50;99.90;;;;;;5007445;28;20501;-80
2020/12/29 07:40:49;;;;;;;2.25;1.90;;;5.00;99.90;;;;;;5029805;28;20034;-81
2020/12/29 07:43:14;;;;;;;4.22;1.88;;;3.10;99.90;;;;;;5026621;28;20033;-80
2020/12/29 07:45:40;;;;;;;5.93;2.33;;;3.70;99.90;;;;;;5028840;28;20783;-80
2020/12/29 07:48:07;;;;;;;3.35;2.10;;;3.50;99.90;;;;;;5027211;28;20530;-79
2020/12/29 07:50:34;;;;;;;3.20;2.33;;;4.50;99.90;;;;;;5022466;28;20033;-80
2020/12/29 07:53:11;;;;;;;2.97;2.22;;;3.60;99.90;;;;;;5027036;28;20040;-80
2020/12/29 07:55:41;;;;;;;6.05;2.65;;;3.70;99.90;;;;;;5029784;28;20410;-80
2020/12/29 07:58:09;;;;;;;3.10;2.25;;;3.70;99.90;;;;;;5031256;28;20036;-85
2020/12/29 08:00:39;;;;;;;3.88;2.28;;;3.70;99.90;;;;;;5033803;28;20091;-80
2020/12/29 08:03:06;;;;;;;3.95;2.53;;;3.80;99.90;;;;;;5028714;28;20029;-79
2020/12/29 08:05:32;;;;;;;4.05;2.67;;;3.80;99.90;;;;;;5025276;28;20026;-81
2020/12/29 08:08:04;;;;;;;3.55;2.50;;;3.70;99.90;;;;;;5030678;28;20048;-80
2020/12/29 08:10:32;;;;;;;3.85;2.72;;;3.80;99.90;;;;;;5034394;28;20040;-81
2020/12/29 08:13:09;;;;;;;4.07;3.20;;;3.80;99.90;;;;;;5033123;28;20049;-80
2020/12/29 08:15:36;;;;;;;5.30;3.13;;;3.80;99.90;;;;;;5029463;28;20029;-81
2020/12/29 08:18:07;;;;;;;4.28;2.50;;;3.70;99.90;;;;;;5029459;28;20467;-80
2020/12/29 08:20:44;;;;;;;4.10;2.50;;;3.80;99.90;;;;;;5023189;28;20026;-80
2020/12/29 08:23:21;;;;;;;3.97;2.80;;;3.80;99.90;;;;;;5035246;28;20021;-79
2020/12/29 08:25:48;;;;;;;4.60;2.78;;;3.80;99.90;;;;;;5028343;28;20049;-80
2020/12/29 08:28:14;;;;;;;4.05;2.38;;;3.70;99.90;;;;;;5038269;28;20116;-80
2020/12/29 08:30:39;;;;;;;4.65;2.50;;;3.70;99.90;;;;;;5042798;28;20558;-79
2020/12/29 08:33:06;;;;;;;5.70;2.50;;;3.70;99.90;;;;;;5030026;28;20557;-79
2020/12/29 08:35:49;;;;;;;3.60;2.50;;;3.70;99.90;;;;;;5030092;28;20057;-79
2020/12/29 08:38:29;;;;;;;6.57;3.13;;;3.70;99.90;;;;;;5031287;28;20386;-81
2020/12/29 08:41:13;;;;;;;4.45;2.67;;;3.70;99.90;;;;;;5026769;28;20026;-80
2020/12/29 08:43:44;;;;;;;4.80;2.63;;;3.80;99.90;;;;;;5022607;28;20048;-81
2020/12/29 08:46:12;;;;;;;5.07;2.65;;;3.80;99.90;;;;;;5038372;28;20136;-81
2020/12/29 08:48:51;;;;;;;3.00;2.20;;;3.90;99.90;;;;;;5030861;28;20025;-81
2020/12/29 08:51:28;;;;;;;5.10;2.42;;;4.50;99.90;;;;;;5035895;28;20053;-79
2020/12/29 08:54:08;;;;;;;4.65;2.47;;;4.00;99.90;;;;;;5035778;28;20044;-81
2020/12/29 08:56:35;;;;;;;4.25;2.30;;;3.90;99.90;;;;;;5026768;28;20455;-82
2020/12/29 08:59:24;;;;;;;3.83;2.03;;;4.00;99.90;;;;;;5029668;28;20455;-80
2020/12/29 09:01:57;;;;;;;2.78;1.90;;;4.10;99.90;;;;;;5030193;28;20037;-81
2020/12/29 09:04:30;;;;;;;4.78;2.05;;;4.00;99.90;;;;;;5026627;28;20511;-80
2020/12/29 09:07:17;;;;;;;2.90;2.05;;;4.00;99.90;;;;;;5036699;28;20029;-81
2020/12/29 09:09:52;;;;;;;4.13;2.10;;;4.00;99.90;;;;;;5032723;28;20037;-81
2020/12/29 09:12:18;;;;;;;3.38;2.03;;;4.00;99.90;;;;;;5034888;28;20060;-81
2020/12/29 09:15:02;;;;;;;4.53;2.00;;;4.00;99.90;;;;;;5032087;28;20033;-79
2020/12/29 09:17:32;;;;;;;7.53;2.72;;;4.10;99.90;;;;;;5030875;28;20530;-80
2020/12/29 09:20:24;;;;;;;6.15;2.40;;;4.20;99.90;;;;;;5035971;28;20037;-80
2020/12/29 09:23:02;;;;;;;4.88;2.67;;;4.30;99.90;;;;;;5029964;28;20033;-81
2020/12/29 09:25:42;;;;;;;6.88;2.35;;;4.30;99.90;;;;;;5033055;28;20411;-80
2020/12/29 09:28:23;;;;;;;4.13;2.38;;;4.30;99.90;;;;;;5029306;28;20462;-80
2020/12/29 09:31:07;;;;;;;5.35;2.20;;;4.30;99.90;;;;;;5031388;28;20037;-80
2020/12/29 09:33:36;;;;;;;4.85;2.40;;;4.30;99.90;;;;;;5023741;28;20029;-82
2020/12/29 09:36:02;;;;;;;3.40;2.30;;;4.30;99.90;;;;;;5036460;28;20065;-79
2020/12/29 09:38:32;;;;;;;6.20;2.38;;;4.30;99.90;;;;;;5034589;28;20044;-82
2020/12/29 09:41:03;;;;;;;5.90;2.85;;;4.30;99.90;;;;;;5031609;28;20033;-80
2020/12/29 09:43:29;;;;;;;8.60;4.05;;;4.20;99.90;;;;;;5036455;28;20048;-79
2020/12/29 09:45:57;;;;;;;6.68;2.78;;;4.20;99.90;;;;;;4995194;28;20053;-79
2020/12/29 09:48:23;;;;;;;5.97;2.75;;;4.20;99.90;;;;;;5036732;28;20037;-81
2020/12/29 09:50:49;;;;;;;6.00;2.90;;;4.20;99.90;;;;;;5032117;28;20063;-82
2020/12/29 09:53:15;;;;;;;6.90;3.05;;;4.30;99.90;;;;;;5029914;28;20127;-79
2020/12/29 09:55:42;;;;;;;5.72;3.40;;;4.30;99.90;;;;;;5035224;28;20630;-81
2020/12/29 09:58:08;;;;;;;5.60;2.72;;;4.40;99.90;;;;;;5030355;28;20068;-81
2020/12/29 10:00:34;;;;;;;5.22;2.50;;;4.50;99.90;;;;;;5036676;28;20103;-84
2020/12/29 10:03:00;;;;;;;7.32;2.97;;;6.40;99.90;;;;;;5048511;28;20041;-79
2020/12/29 10:05:26;;;;;;;5.43;2.35;;;3.90;99.90;;;;;;5030481;28;20108;-81
2020/12/29 10:07:52;;;;;;;6.85;2.50;;;4.30;99.90;;;;;;5031212;28;20037;-81
2020/12/29 10:10:17;;;;;;;6.50;2.92;;;6.80;99.90;;;;;;5017355;28;20037;-82
2020/12/29 10:12:43;;;;;;;8.00;2.72;;;4.90;99.90;;;;;;5019874;28;20056;-81
2020/12/29 10:15:10;;;;;;;7.63;2.70;;;5.20;99.90;;;;;;5027707;28;20045;-80
2020/12/29 10:17:36;;;;;;;10.38;2.88;;;6.50;99.90;;;;;;5027816;28;20060;-81
2020/12/29 10:20:09;;;;;;;6.88;2.38;;;7.80;99.90;;;;;;5030366;28;20079;-80
2020/12/29 10:22:34;;;;;;;7.20;2.72;;;6.10;99.90;;;;;;5028468;28;20033;-83
2020/12/29 10:25:00;;;;;;;6.53;3.00;;;7.20;99.90;;;;;;5036138;28;20543;-81
2020/12/29 10:27:26;;;;;;;9.52;3.17;;;5.40;99.90;;;;;;5011871;28;20132;-79
2020/12/29 10:29:51;;;;;;;7.15;2.80;;;5.50;99.90;;;;;;5030041;28;20299;-82
2020/12/29 10:32:24;;;;;;;8.57;2.65;;;7.10;99.90;;;;;;5034452;28;20045;-80
2020/12/29 10:34:50;;;;;;;6.80;2.28;;;5.30;99.90;;;;;;5029414;28;20058;-84
2020/12/29 10:37:16;;;;;;;6.47;2.30;;;7.10;99.90;;;;;;5010141;28;20034;-80
2020/12/29 10:39:42;;;;;;;8.23;2.35;;;7.80;99.90;;;;;;5033738;28;20035;-79
2020/12/29 10:42:10;;;;;;;11.70;3.60;;;7.00;99.90;;;;;;5029733;28;20048;-80
2020/12/29 10:44:36;;;;;;;4.82;1.83;;;6.90;99.20;;;;;;5028062;28;20038;-79
2020/12/29 10:47:03;;;;;;;3.65;1.90;;;7.00;99.90;;;;;;5017104;28;20048;-79
2020/12/29 10:49:28;;;;;;;5.28;2.38;;;5.70;99.90;;;;;;5035250;28;20041;-82
2020/12/29 10:51:54;;;;;;;6.68;2.25;;;7.70;99.90;;;;;;5040657;28;20056;-83
2020/12/29 10:54:21;;;;;;;8.75;2.40;;;7.00;99.90;;;;;;5019459;28;20110;-81
2020/12/29 10:56:46;;;;;;;7.75;2.08;;;7.80;99.90;;;;;;5015692;28;20030;-81
2020/12/29 10:59:12;;;;;;;5.22;1.92;;;5.40;99.90;;;;;;5032091;28;20045;-81
2020/12/29 11:01:38;;;;;;;5.88;2.42;;;7.00;99.90;;;;;;5038831;28;20025;-80
2020/12/29 11:04:04;;;;;;;8.00;2.72;;;5.90;99.90;;;;;;5029777;28;20041;-80
2020/12/29 11:06:30;;;;;;;6.60;3.13;;;5.80;99.20;;;;;;5017952;28;20372;-83
2020/12/29 11:09:00;;;;;;;5.95;2.17;;;7.30;99.90;;;;;;5032984;28;20141;-83
2020/12/29 11:11:26;;;;;;;8.50;2.58;;;6.60;99.50;;;;;;5031801;28;20034;-83
2020/12/29 11:13:53;;;;;;;6.28;2.10;;;6.50;99.60;;;;;;5022363;28;20038;-82
2020/12/29 11:16:23;;;;;;;6.35;1.70;;;5.50;99.00;;;;;;5013450;28;20044;-81
2020/12/29 11:18:50;;;;;;;5.25;1.92;;;7.60;99.20;;;;;;5029565;28;20183;-83
2020/12/29 11:21:18;;;;;;;8.70;1.67;;;7.00;98.80;;;;;;5027819;28;20041;-82
2020/12/29 11:23:44;;;;;;;8.55;1.95;;;6.90;98.10;;;;;;5034503;28;20044;-83
2020/12/29 11:26:17;;;;;;;9.00;2.00;;;6.00;97.90;;;;;;5023861;28;20038;-83
2020/12/29 11:28:44;;;;;;;7.35;1.95;;;6.10;97.40;;;;;;5034229;28;20056;-82
2020/12/29 11:31:18;;;;;;;5.70;1.52;;;7.90;98.20;;;;;;5039331;28;20029;-83
2020/12/29 11:33:46;;;;;;;5.45;1.88;;;8.10;97.50;;;;;;5035451;28;20030;-82
2020/12/29 11:36:17;;;;;;;7.00;1.90;;;7.80;98.10;;;;;;5016046;28;20064;-83
2020/12/29 11:38:42;;;;;;;4.70;1.67;;;6.90;97.60;;;;;;5035924;28;20065;-82
2020/12/29 11:41:11;;;;;;;8.18;2.10;;;6.00;98.20;;;;;;5031702;28;20041;-84
2020/12/29 11:43:37;;;;;;;4.22;1.25;;;7.20;99.20;;;;;;5033462;28;20064;-82
2020/12/29 11:46:07;;;;;;;4.35;1.50;;;7.20;99.90;;;;;;5034231;28;20514;-82
2020/12/29 11:48:34;;;;;;;8.93;1.92;;;7.90;99.30;;;;;;5033462;28;20076;-81
2020/12/29 11:51:00;;;;;;;5.85;1.75;;;7.80;99.10;;;;;;5025491;28;20502;-81
2020/12/29 11:53:26;;;;;;;9.65;1.77;;;5.80;98.90;;;;;;5035867;28;20018;-82
2020/12/29 11:55:51;;;;;;;5.95;1.65;;;7.50;99.70;;;;;;5015285;28;20068;-79
2020/12/29 11:58:17;;;;;;;6.82;2.05;;;5.80;99.00;;;;;;5031790;28;20065;-81
2020/12/29 12:00:44;;;;;;;5.20;1.60;;;7.10;99.30;;;;;;5029657;28;20053;-83
2020/12/29 12:03:10;;;;;;;5.90;1.58;;;7.10;99.70;;;;;;5036870;28;20490;-81
2020/12/29 12:05:35;;;;;;;7.03;1.67;;;7.50;99.90;;;;;;5000186;28;20045;-81
2020/12/29 12:08:01;;;;;;;3.72;1.50;;;5.60;99.90;;;;;;5029103;28;20038;-82
2020/12/29 12:10:29;;;;;;;4.32;1.80;;;5.60;99.90;;;;;;5028391;28;20065;-82
2020/12/29 12:12:55;;;;;;;5.07;1.83;;;5.50;99.90;;;;;;5043776;28;20141;-82
2020/12/29 12:15:23;;;;;;;7.32;1.80;;;5.60;99.90;;;;;;5029444;28;20084;-82
2020/12/29 12:17:48;;;;;;;7.15;1.65;;;5.50;99.90;;;;;;4997828;28;20037;-81
2020/12/29 12:20:15;;;;;;;5.30;1.58;;;5.50;99.90;;;;;;5028875;28;20044;-80
2020/12/29 12:22:41;;;;;;;4.53;1.80;;;6.50;99.90;;;;;;5027035;28;20033;-80
2020/12/29 12:25:08;;;;;;;9.65;2.30;;;7.20;99.90;;;;;;5035251;28;20037;-81
2020/12/29 12:27:33;;;;;;;5.80;1.77;;;5.40;99.90;;;;;;5013755;28;20503;-81
2020/12/29 12:29:59;;;;;;;6.32;1.75;;;5.30;99.90;;;;;;5032292;28;20104;-82
2020/12/29 12:32:25;;;;;;;6.75;2.45;;;5.40;99.90;;;;;;5029743;28;20037;-81
2020/12/29 12:34:51;;;;;;;3.92;1.70;;;5.40;99.90;;;;;;5033172;28;20633;-82
2020/12/29 12:37:17;;;;;;;5.75;2.10;;;5.50;99.90;;;;;;5032532;28;20033;-81
2020/12/29 12:39:43;;;;;;;5.00;2.20;;;5.60;99.90;;;;;;5029771;28;20038;-81
2020/12/29 12:42:10;;;;;;;5.88;1.90;;;7.00;99.90;;;;;;5032630;28;20533;-81
2020/12/29 12:44:40;;;;;;;8.80;2.55;;;5.40;99.90;;;;;;5031396;28;20033;-82
2020/12/29 12:47:06;;;;;;;9.25;2.75;;;5.50;99.90;;;;;;5032424;28;20029;-82
2020/12/29 12:49:32;;;;;;;5.53;2.67;;;5.60;99.90;;;;;;5032609;28;20457;-82
2020/12/29 12:51:58;;;;;;;6.43;2.58;;;5.40;99.90;;;;;;5032002;28;20060;-81
2020/12/29 12:54:26;;;;;;;7.47;3.50;;;5.30;99.90;;;;;;5029621;28;20487;-81
2020/12/29 12:56:52;;;;;;;7.72;3.30;;;5.20;99.90;;;;;;5028546;28;20033;-82
2020/12/29 12:59:18;;;;;;;8.57;3.58;;;5.20;99.90;;;;;;5031330;28;20101;-84
2020/12/29 13:01:44;;;;;;;8.48;3.90;;;5.20;99.90;;;;;;5014757;28;20059;-81
2020/12/29 13:04:10;;;;;;;7.60;3.88;;;5.00;99.90;;;;;;4999699;28;20052;-80
2020/12/29 13:06:36;;;;;;;6.95;3.80;;;5.20;99.90;;;;;;5010332;28;20046;-78
2020/12/29 13:09:03;;;;;;;7.55;3.42;;;5.20;99.90;;;;;;5031370;28;20110;-80